F/V Jeremi Simon — FHAF — position and weather

sailwx.info

Track history (hours):
 
Tides and Currents Weather Stations Pressure Air Temp Water Temp Dewpoint Dewpoint Depression Visibility Wind Speed Wind Dir Waves Ship Positions

F/V Jeremi Simon

Last reported at 2014-Jul-23 03:33 UTC. Time now 2014-Jul-23 07:55 UTC.
Position N 46°43' W 002°10'.

Length 20 m.

Type: Other ship. MMSI: 227415000.

Date/timePositionNaut miles runAvg speedWind from/ knotsBaromVisibWave heightAir tempDewpointWater temp
2014-Jul-23 03:33N 46°43' W 002°10'9 9.2
2014-Jul-23 02:33N 46°42' W 001°57'0 0.4
2014-Jul-23 01:33N 46°42' W 001°57'0 0.0
2014-Jul-22 21:33N 46°42' W 001°57'0 0.0
2014-Jul-22 18:33N 46°42' W 001°57'0 0.0
2014-Jul-22 17:34N 46°42' W 001°57'0 0.0
2014-Jul-22 16:33N 46°42' W 001°57'0 0.0
2014-Jul-22 13:08N 46°42' W 001°57'0 0.0
2014-Jul-22 12:34N 46°42' W 001°57'0 0.0
2014-Jul-22 10:33N 46°42' W 001°57'1 0.6
2014-Jul-22 09:34N 46°41' W 001°57'1 0.6
2014-Jul-22 08:34N 46°42' W 001°57'0 0.0
2014-Jul-22 07:34N 46°42' W 001°57'0 0.0
2014-Jul-22 06:33N 46°42' W 001°57'0 0.0
2014-Jul-22 05:34N 46°42' W 001°57'0 0.0
2014-Jul-22 04:33N 46°42' W 001°57'0 0.0
2014-Jul-22 03:33N 46°42' W 001°57'0 0.0
2014-Jul-22 02:34N 46°42' W 001°57'0 0.0
2014-Jul-22 01:33N 46°42' W 001°57'0 0.0
2014-Jul-22 00:34N 46°42' W 001°57'0 0.1
2014-Jul-21 23:34N 46°42' W 001°57'0 0.0
2014-Jul-21 22:34N 46°42' W 001°57'4 4.4
2014-Jul-21 21:34N 46°40' W 002°02'12 9.4
2014-Jul-21 20:17N 46°36' W 002°19'  
2014-Jul-17 18:33N 46°42' W 001°56'0 0.0
2014-Jul-17 17:33N 46°42' W 001°56'8 7.9
2014-Jul-17 16:33N 46°43' W 002°08'20 2.0
2014-Jul-17 06:33N 46°48' W 002°35'9 9.1
2014-Jul-17 05:33N 46°46' W 002°23'9 9.3
2014-Jul-17 04:33N 46°43' W 002°10'9 8.9
2014-Jul-17 03:33N 46°42' W 001°57'0 0.1
2014-Jul-16 23:33N 46°42' W 001°57'0 0.0
2014-Jul-16 22:33N 46°42' W 001°57'0 0.0
2014-Jul-16 21:33N 46°42' W 001°57'7 7.4
2014-Jul-16 20:33N 46°43' W 002°07'14 1.0
2014-Jul-16 06:27N 46°47' W 002°26'8 8.9
2014-Jul-16 05:33N 46°44' W 002°15'9 9.3
2014-Jul-16 04:33N 46°42' W 002°02'4 0.4
2014-Jul-15 19:33N 46°42' W 001°57'0 0.0
2014-Jul-15 18:34N 46°42' W 001°57'3 2.6
2014-Jul-15 17:33N 46°41' W 002°00'1110.7
2014-Jul-15 16:33N 46°45' W 002°15'8 0.8
2014-Jul-15 06:08N 46°46' W 002°27'  
Track history (hours):
 
Tides and Currents Weather Stations Pressure Air Temp Water Temp Dewpoint Dewpoint Depression Visibility Wind Speed Wind Dir Waves Ship Positions

F/V Jeremi Simon

Last reported at 2014-Jul-23 03:33 UTC. Time now 2014-Jul-23 07:55 UTC.
Position N 46°43' W 002°10'.

Length 20 m.

Type: Other ship. MMSI: 227415000.

Date/timePositionNaut miles runAvg speedWind from/ knotsBaromVisibWave heightAir tempDewpointWater temp
2014-Jul-23 03:33N 46°43' W 002°10'9 9.2
2014-Jul-23 02:33N 46°42' W 001°57'0 0.4
2014-Jul-23 01:33N 46°42' W 001°57'0 0.0
2014-Jul-22 21:33N 46°42' W 001°57'0 0.0
2014-Jul-22 18:33N 46°42' W 001°57'0 0.0
2014-Jul-22 17:34N 46°42' W 001°57'0 0.0
2014-Jul-22 16:33N 46°42' W 001°57'0 0.0
2014-Jul-22 13:08N 46°42' W 001°57'0 0.0
2014-Jul-22 12:34N 46°42' W 001°57'0 0.0
2014-Jul-22 10:33N 46°42' W 001°57'1 0.6
2014-Jul-22 09:34N 46°41' W 001°57'1 0.6
2014-Jul-22 08:34N 46°42' W 001°57'0 0.0
2014-Jul-22 07:34N 46°42' W 001°57'0 0.0
2014-Jul-22 06:33N 46°42' W 001°57'0 0.0
2014-Jul-22 05:34N 46°42' W 001°57'0 0.0
2014-Jul-22 04:33N 46°42' W 001°57'0 0.0
2014-Jul-22 03:33N 46°42' W 001°57'0 0.0
2014-Jul-22 02:34N 46°42' W 001°57'0 0.0
2014-Jul-22 01:33N 46°42' W 001°57'0 0.0
2014-Jul-22 00:34N 46°42' W 001°57'0 0.1
2014-Jul-21 23:34N 46°42' W 001°57'0 0.0
2014-Jul-21 22:34N 46°42' W 001°57'4 4.4
2014-Jul-21 21:34N 46°40' W 002°02'12 9.4
2014-Jul-21 20:17N 46°36' W 002°19'  
2014-Jul-17 18:33N 46°42' W 001°56'0 0.0
2014-Jul-17 17:33N 46°42' W 001°56'8 7.9
2014-Jul-17 16:33N 46°43' W 002°08'20 2.0
2014-Jul-17 06:33N 46°48' W 002°35'9 9.1
2014-Jul-17 05:33N 46°46' W 002°23'9 9.3
2014-Jul-17 04:33N 46°43' W 002°10'9 8.9
2014-Jul-17 03:33N 46°42' W 001°57'0 0.1
2014-Jul-16 23:33N 46°42' W 001°57'0 0.0
2014-Jul-16 22:33N 46°42' W 001°57'0 0.0
2014-Jul-16 21:33N 46°42' W 001°57'7 7.4
2014-Jul-16 20:33N 46°43' W 002°07'14 1.0
2014-Jul-16 06:27N 46°47' W 002°26'8 8.9
2014-Jul-16 05:33N 46°44' W 002°15'9 9.3
2014-Jul-16 04:33N 46°42' W 002°02'4 0.4
2014-Jul-15 19:33N 46°42' W 001°57'0 0.0
2014-Jul-15 18:34N 46°42' W 001°57'3 2.6
2014-Jul-15 17:33N 46°41' W 002°00'1110.7
2014-Jul-15 16:33N 46°45' W 002°15'8 0.8
2014-Jul-15 06:08N 46°46' W 002°27'  

Dump ship's entire track history